sensor_id;sensor_type;location;lat;lon;timestamp;P1;durP1;ratioP1;P2;durP2;ratioP2
4051;SDS011;2040;50.924;11.604;2023-05-14T00:01:01;4.97;;;3.87;;
4051;SDS011;2040;50.924;11.604;2023-05-14T00:03:26;4.83;;;3.37;;
4051;SDS011;2040;50.924;11.604;2023-05-14T00:05:52;5.53;;;3.40;;
4051;SDS011;2040;50.924;11.604;2023-05-14T00:08:17;6.57;;;4.20;;
4051;SDS011;2040;50.924;11.604;2023-05-14T00:10:43;4.90;;;4.07;;
4051;SDS011;2040;50.924;11.604;2023-05-14T00:13:09;4.00;;;3.33;;
4051;SDS011;2040;50.924;11.604;2023-05-14T00:15:34;6.57;;;4.30;;
4051;SDS011;2040;50.924;11.604;2023-05-14T00:18:00;4.90;;;3.37;;
4051;SDS011;2040;50.924;11.604;2023-05-14T00:20:25;6.30;;;4.30;;
4051;SDS011;2040;50.924;11.604;2023-05-14T00:22:51;7.87;;;3.47;;
4051;SDS011;2040;50.924;11.604;2023-05-14T00:25:16;6.30;;;4.10;;
4051;SDS011;2040;50.924;11.604;2023-05-14T00:27:42;5.40;;;3.90;;
4051;SDS011;2040;50.924;11.604;2023-05-14T00:30:07;6.83;;;4.50;;
4051;SDS011;2040;50.924;11.604;2023-05-14T00:32:33;10.50;;;4.23;;
4051;SDS011;2040;50.924;11.604;2023-05-14T00:34:59;6.80;;;3.83;;
4051;SDS011;2040;50.924;11.604;2023-05-14T00:37:26;7.20;;;4.10;;
4051;SDS011;2040;50.924;11.604;2023-05-14T00:39:52;5.30;;;4.00;;
4051;SDS011;2040;50.924;11.604;2023-05-14T00:42:18;6.50;;;4.30;;
4051;SDS011;2040;50.924;11.604;2023-05-14T00:44:43;5.13;;;3.73;;
4051;SDS011;2040;50.924;11.604;2023-05-14T00:47:09;4.60;;;3.97;;
4051;SDS011;2040;50.924;11.604;2023-05-14T00:49:35;5.73;;;4.03;;
4051;SDS011;2040;50.924;11.604;2023-05-14T00:52:00;7.90;;;4.60;;
4051;SDS011;2040;50.924;11.604;2023-05-14T00:54:26;5.30;;;3.80;;
4051;SDS011;2040;50.924;11.604;2023-05-14T00:56:53;4.60;;;4.10;;
4051;SDS011;2040;50.924;11.604;2023-05-14T00:59:19;7.50;;;4.20;;
4051;SDS011;2040;50.924;11.604;2023-05-14T01:01:45;5.23;;;4.27;;
4051;SDS011;2040;50.924;11.604;2023-05-14T01:04:11;5.90;;;4.30;;
4051;SDS011;2040;50.924;11.604;2023-05-14T01:09:19;7.63;;;4.50;;
4051;SDS011;2040;50.924;11.604;2023-05-14T01:14:19;8.53;;;5.50;;
4051;SDS011;2040;50.924;11.604;2023-05-14T01:16:51;6.03;;;4.40;;
4051;SDS011;2040;50.924;11.604;2023-05-14T01:19:21;5.77;;;4.57;;
4051;SDS011;2040;50.924;11.604;2023-05-14T01:22:04;9.90;;;4.77;;
4051;SDS011;2040;50.924;11.604;2023-05-14T01:24:30;6.53;;;5.20;;
4051;SDS011;2040;50.924;11.604;2023-05-14T01:26:57;7.40;;;5.20;;
4051;SDS011;2040;50.924;11.604;2023-05-14T01:29:30;7.00;;;4.73;;
4051;SDS011;2040;50.924;11.604;2023-05-14T01:31:59;13.53;;;5.53;;
4051;SDS011;2040;50.924;11.604;2023-05-14T01:34:25;6.83;;;5.00;;
4051;SDS011;2040;50.924;11.604;2023-05-14T01:36:54;8.10;;;5.10;;
4051;SDS011;2040;50.924;11.604;2023-05-14T01:39:21;6.00;;;4.87;;
4051;SDS011;2040;50.924;11.604;2023-05-14T01:41:48;6.87;;;4.53;;
4051;SDS011;2040;50.924;11.604;2023-05-14T01:44:14;6.00;;;5.07;;
4051;SDS011;2040;50.924;11.604;2023-05-14T01:46:41;6.77;;;4.30;;
4051;SDS011;2040;50.924;11.604;2023-05-14T01:49:06;8.57;;;4.77;;
4051;SDS011;2040;50.924;11.604;2023-05-14T01:51:32;6.50;;;4.40;;
4051;SDS011;2040;50.924;11.604;2023-05-14T01:53:58;8.30;;;5.20;;
4051;SDS011;2040;50.924;11.604;2023-05-14T01:56:23;8.00;;;4.20;;
4051;SDS011;2040;50.924;11.604;2023-05-14T01:58:49;6.00;;;4.57;;
4051;SDS011;2040;50.924;11.604;2023-05-14T02:01:15;9.63;;;5.80;;
4051;SDS011;2040;50.924;11.604;2023-05-14T02:03:40;7.20;;;5.50;;
4051;SDS011;2040;50.924;11.604;2023-05-14T02:06:06;7.47;;;5.17;;
4051;SDS011;2040;50.924;11.604;2023-05-14T02:08:31;6.80;;;4.90;;
4051;SDS011;2040;50.924;11.604;2023-05-14T02:10:57;7.03;;;4.90;;
4051;SDS011;2040;50.924;11.604;2023-05-14T02:13:23;6.30;;;4.43;;
4051;SDS011;2040;50.924;11.604;2023-05-14T02:15:49;6.77;;;5.20;;
4051;SDS011;2040;50.924;11.604;2023-05-14T02:18:15;5.83;;;4.87;;
4051;SDS011;2040;50.924;11.604;2023-05-14T02:20:41;10.60;;;5.50;;
4051;SDS011;2040;50.924;11.604;2023-05-14T02:23:06;9.13;;;5.60;;
4051;SDS011;2040;50.924;11.604;2023-05-14T02:25:32;11.07;;;5.03;;
4051;SDS011;2040;50.924;11.604;2023-05-14T02:27:57;9.43;;;5.97;;
4051;SDS011;2040;50.924;11.604;2023-05-14T02:30:23;7.70;;;5.47;;
4051;SDS011;2040;50.924;11.604;2023-05-14T02:32:49;7.40;;;4.57;;
4051;SDS011;2040;50.924;11.604;2023-05-14T02:35:14;6.67;;;4.80;;
4051;SDS011;2040;50.924;11.604;2023-05-14T02:37:40;17.80;;;5.03;;
4051;SDS011;2040;50.924;11.604;2023-05-14T02:40:05;8.10;;;4.40;;
4051;SDS011;2040;50.924;11.604;2023-05-14T02:42:31;7.07;;;5.10;;
4051;SDS011;2040;50.924;11.604;2023-05-14T02:44:57;5.77;;;4.80;;
4051;SDS011;2040;50.924;11.604;2023-05-14T02:47:22;7.90;;;5.27;;
4051;SDS011;2040;50.924;11.604;2023-05-14T02:49:48;7.43;;;4.90;;
4051;SDS011;2040;50.924;11.604;2023-05-14T02:52:14;7.10;;;4.77;;
4051;SDS011;2040;50.924;11.604;2023-05-14T02:54:39;6.20;;;4.90;;
4051;SDS011;2040;50.924;11.604;2023-05-14T02:57:05;8.60;;;4.97;;
4051;SDS011;2040;50.924;11.604;2023-05-14T02:59:30;9.93;;;4.90;;
4051;SDS011;2040;50.924;11.604;2023-05-14T03:01:56;10.10;;;5.90;;
4051;SDS011;2040;50.924;11.604;2023-05-14T03:04:21;5.20;;;4.50;;
4051;SDS011;2040;50.924;11.604;2023-05-14T03:06:47;7.90;;;4.43;;
4051;SDS011;2040;50.924;11.604;2023-05-14T03:09:13;6.93;;;5.60;;
4051;SDS011;2040;50.924;11.604;2023-05-14T03:11:38;8.77;;;4.67;;
4051;SDS011;2040;50.924;11.604;2023-05-14T03:14:04;7.33;;;5.40;;
4051;SDS011;2040;50.924;11.604;2023-05-14T03:16:29;5.57;;;5.00;;
4051;SDS011;2040;50.924;11.604;2023-05-14T03:18:55;7.73;;;5.23;;
4051;SDS011;2040;50.924;11.604;2023-05-14T03:21:20;8.07;;;5.30;;
4051;SDS011;2040;50.924;11.604;2023-05-14T03:23:46;8.03;;;5.93;;
4051;SDS011;2040;50.924;11.604;2023-05-14T03:26:11;10.77;;;6.33;;
4051;SDS011;2040;50.924;11.604;2023-05-14T03:28:38;8.53;;;5.57;;
4051;SDS011;2040;50.924;11.604;2023-05-14T03:31:04;9.20;;;5.90;;
4051;SDS011;2040;50.924;11.604;2023-05-14T03:33:30;6.57;;;5.03;;
4051;SDS011;2040;50.924;11.604;2023-05-14T03:35:55;8.60;;;5.47;;
4051;SDS011;2040;50.924;11.604;2023-05-14T03:38:21;8.43;;;6.20;;
4051;SDS011;2040;50.924;11.604;2023-05-14T03:40:47;7.87;;;5.50;;
4051;SDS011;2040;50.924;11.604;2023-05-14T03:43:12;6.50;;;5.20;;
4051;SDS011;2040;50.924;11.604;2023-05-14T03:45:38;7.07;;;5.30;;
4051;SDS011;2040;50.924;11.604;2023-05-14T03:48:04;13.63;;;5.27;;
4051;SDS011;2040;50.924;11.604;2023-05-14T03:50:30;7.53;;;5.43;;
4051;SDS011;2040;50.924;11.604;2023-05-14T03:52:55;9.33;;;5.70;;
4051;SDS011;2040;50.924;11.604;2023-05-14T03:55:21;10.07;;;5.93;;
4051;SDS011;2040;50.924;11.604;2023-05-14T03:57:47;7.47;;;5.63;;
4051;SDS011;2040;50.924;11.604;2023-05-14T04:00:13;11.43;;;5.60;;
4051;SDS011;2040;50.924;11.604;2023-05-14T04:02:38;10.20;;;6.47;;
4051;SDS011;2040;50.924;11.604;2023-05-14T04:05:04;8.57;;;5.90;;
4051;SDS011;2040;50.924;11.604;2023-05-14T04:07:30;9.23;;;6.00;;
4051;SDS011;2040;50.924;11.604;2023-05-14T04:09:55;9.60;;;5.60;;
4051;SDS011;2040;50.924;11.604;2023-05-14T04:12:21;7.27;;;5.77;;
4051;SDS011;2040;50.924;11.604;2023-05-14T04:14:46;8.70;;;6.20;;
4051;SDS011;2040;50.924;11.604;2023-05-14T04:17:12;9.43;;;5.83;;
4051;SDS011;2040;50.924;11.604;2023-05-14T04:19:37;6.47;;;5.63;;
4051;SDS011;2040;50.924;11.604;2023-05-14T04:22:04;6.67;;;5.10;;
4051;SDS011;2040;50.924;11.604;2023-05-14T04:24:30;8.37;;;5.13;;
4051;SDS011;2040;50.924;11.604;2023-05-14T04:26:55;7.50;;;4.83;;
4051;SDS011;2040;50.924;11.604;2023-05-14T04:29:21;9.10;;;6.27;;
4051;SDS011;2040;50.924;11.604;2023-05-14T04:31:48;7.57;;;5.30;;
4051;SDS011;2040;50.924;11.604;2023-05-14T04:34:13;8.20;;;5.10;;
4051;SDS011;2040;50.924;11.604;2023-05-14T04:36:39;5.67;;;4.57;;
4051;SDS011;2040;50.924;11.604;2023-05-14T04:39:05;8.93;;;5.30;;
4051;SDS011;2040;50.924;11.604;2023-05-14T04:41:31;5.53;;;5.00;;
4051;SDS011;2040;50.924;11.604;2023-05-14T04:43:57;8.70;;;5.00;;
4051;SDS011;2040;50.924;11.604;2023-05-14T04:46:24;7.33;;;5.40;;
4051;SDS011;2040;50.924;11.604;2023-05-14T04:48:50;7.83;;;5.57;;
4051;SDS011;2040;50.924;11.604;2023-05-14T04:51:16;7.00;;;4.83;;
4051;SDS011;2040;50.924;11.604;2023-05-14T04:53:41;9.80;;;5.20;;
4051;SDS011;2040;50.924;11.604;2023-05-14T04:56:07;8.20;;;5.40;;
4051;SDS011;2040;50.924;11.604;2023-05-14T04:58:32;5.83;;;4.93;;
4051;SDS011;2040;50.924;11.604;2023-05-14T05:00:58;5.23;;;4.50;;
4051;SDS011;2040;50.924;11.604;2023-05-14T05:03:24;5.20;;;4.47;;
4051;SDS011;2040;50.924;11.604;2023-05-14T05:05:49;6.60;;;4.83;;
4051;SDS011;2040;50.924;11.604;2023-05-14T05:08:15;6.50;;;5.17;;
4051;SDS011;2040;50.924;11.604;2023-05-14T05:10:41;11.83;;;5.80;;
4051;SDS011;2040;50.924;11.604;2023-05-14T05:13:06;7.50;;;5.30;;
4051;SDS011;2040;50.924;11.604;2023-05-14T05:15:32;6.30;;;5.20;;
4051;SDS011;2040;50.924;11.604;2023-05-14T05:17:57;8.90;;;5.23;;
4051;SDS011;2040;50.924;11.604;2023-05-14T05:20:23;11.97;;;5.83;;
4051;SDS011;2040;50.924;11.604;2023-05-14T05:22:49;8.00;;;5.40;;
4051;SDS011;2040;50.924;11.604;2023-05-14T05:25:15;6.83;;;4.80;;
4051;SDS011;2040;50.924;11.604;2023-05-14T05:27:40;9.90;;;6.40;;
4051;SDS011;2040;50.924;11.604;2023-05-14T05:30:06;7.87;;;6.13;;
4051;SDS011;2040;50.924;11.604;2023-05-14T05:32:32;9.77;;;6.33;;
4051;SDS011;2040;50.924;11.604;2023-05-14T05:34:58;11.33;;;6.40;;
4051;SDS011;2040;50.924;11.604;2023-05-14T05:37:23;6.60;;;5.07;;
4051;SDS011;2040;50.924;11.604;2023-05-14T05:39:49;9.03;;;5.37;;
4051;SDS011;2040;50.924;11.604;2023-05-14T05:42:15;8.80;;;5.50;;
4051;SDS011;2040;50.924;11.604;2023-05-14T05:44:40;6.40;;;5.07;;
4051;SDS011;2040;50.924;11.604;2023-05-14T05:47:06;7.77;;;5.00;;
4051;SDS011;2040;50.924;11.604;2023-05-14T05:49:31;15.23;;;5.93;;
4051;SDS011;2040;50.924;11.604;2023-05-14T05:51:57;7.60;;;5.80;;
4051;SDS011;2040;50.924;11.604;2023-05-14T05:54:23;7.87;;;6.07;;
4051;SDS011;2040;50.924;11.604;2023-05-14T05:56:49;6.63;;;5.50;;
4051;SDS011;2040;50.924;11.604;2023-05-14T05:59:15;9.00;;;6.23;;
4051;SDS011;2040;50.924;11.604;2023-05-14T06:01:40;7.60;;;5.73;;
4051;SDS011;2040;50.924;11.604;2023-05-14T06:04:07;9.00;;;6.03;;
4051;SDS011;2040;50.924;11.604;2023-05-14T06:06:33;8.70;;;6.13;;
4051;SDS011;2040;50.924;11.604;2023-05-14T06:08:59;10.40;;;6.97;;
4051;SDS011;2040;50.924;11.604;2023-05-14T06:11:25;9.53;;;5.60;;
4051;SDS011;2040;50.924;11.604;2023-05-14T06:13:51;9.03;;;5.70;;
4051;SDS011;2040;50.924;11.604;2023-05-14T06:16:17;11.10;;;5.77;;
4051;SDS011;2040;50.924;11.604;2023-05-14T06:18:43;7.63;;;5.80;;
4051;SDS011;2040;50.924;11.604;2023-05-14T06:21:08;9.50;;;6.33;;
4051;SDS011;2040;50.924;11.604;2023-05-14T06:23:34;7.93;;;5.50;;
4051;SDS011;2040;50.924;11.604;2023-05-14T06:25:59;7.37;;;5.77;;
4051;SDS011;2040;50.924;11.604;2023-05-14T06:28:25;6.97;;;5.33;;
4051;SDS011;2040;50.924;11.604;2023-05-14T06:30:51;7.73;;;5.30;;
4051;SDS011;2040;50.924;11.604;2023-05-14T06:33:18;9.10;;;5.50;;
4051;SDS011;2040;50.924;11.604;2023-05-14T06:35:45;10.57;;;5.50;;
4051;SDS011;2040;50.924;11.604;2023-05-14T06:38:10;7.83;;;5.93;;
4051;SDS011;2040;50.924;11.604;2023-05-14T06:40:36;7.33;;;6.00;;
4051;SDS011;2040;50.924;11.604;2023-05-14T06:43:01;11.73;;;5.70;;
4051;SDS011;2040;50.924;11.604;2023-05-14T06:45:27;9.03;;;5.70;;
4051;SDS011;2040;50.924;11.604;2023-05-14T06:47:53;9.63;;;6.33;;
4051;SDS011;2040;50.924;11.604;2023-05-14T06:50:19;8.07;;;5.50;;
4051;SDS011;2040;50.924;11.604;2023-05-14T06:52:45;8.47;;;5.23;;
4051;SDS011;2040;50.924;11.604;2023-05-14T06:55:10;7.80;;;5.73;;
4051;SDS011;2040;50.924;11.604;2023-05-14T06:57:36;8.27;;;5.60;;
4051;SDS011;2040;50.924;11.604;2023-05-14T07:00:02;7.70;;;5.67;;
4051;SDS011;2040;50.924;11.604;2023-05-14T07:02:28;10.70;;;5.30;;
4051;SDS011;2040;50.924;11.604;2023-05-14T07:04:54;7.90;;;5.20;;
4051;SDS011;2040;50.924;11.604;2023-05-14T07:07:20;10.47;;;5.53;;
4051;SDS011;2040;50.924;11.604;2023-05-14T07:09:45;6.67;;;5.53;;
4051;SDS011;2040;50.924;11.604;2023-05-14T07:12:11;7.00;;;6.10;;
4051;SDS011;2040;50.924;11.604;2023-05-14T07:14:37;7.43;;;5.50;;
4051;SDS011;2040;50.924;11.604;2023-05-14T07:17:02;6.70;;;5.30;;
4051;SDS011;2040;50.924;11.604;2023-05-14T07:19:28;9.13;;;5.53;;
4051;SDS011;2040;50.924;11.604;2023-05-14T07:21:54;7.70;;;5.90;;
4051;SDS011;2040;50.924;11.604;2023-05-14T07:24:21;10.97;;;5.60;;
4051;SDS011;2040;50.924;11.604;2023-05-14T07:26:47;9.87;;;5.70;;
4051;SDS011;2040;50.924;11.604;2023-05-14T07:29:13;7.70;;;5.07;;
4051;SDS011;2040;50.924;11.604;2023-05-14T07:31:38;10.83;;;5.63;;
4051;SDS011;2040;50.924;11.604;2023-05-14T07:34:04;6.57;;;5.40;;
4051;SDS011;2040;50.924;11.604;2023-05-14T07:36:29;9.43;;;5.70;;
4051;SDS011;2040;50.924;11.604;2023-05-14T07:38:55;6.57;;;4.90;;
4051;SDS011;2040;50.924;11.604;2023-05-14T07:41:21;10.10;;;4.80;;
4051;SDS011;2040;50.924;11.604;2023-05-14T07:43:46;6.70;;;4.47;;
4051;SDS011;2040;50.924;11.604;2023-05-14T07:46:12;8.90;;;5.10;;
4051;SDS011;2040;50.924;11.604;2023-05-14T07:48:38;6.87;;;5.27;;
4051;SDS011;2040;50.924;11.604;2023-05-14T07:51:04;10.70;;;5.13;;
4051;SDS011;2040;50.924;11.604;2023-05-14T07:53:29;9.90;;;5.40;;
4051;SDS011;2040;50.924;11.604;2023-05-14T07:55:55;8.20;;;4.13;;
4051;SDS011;2040;50.924;11.604;2023-05-14T07:58:21;6.13;;;5.20;;
4051;SDS011;2040;50.924;11.604;2023-05-14T08:00:47;5.80;;;4.47;;
4051;SDS011;2040;50.924;11.604;2023-05-14T08:03:13;8.53;;;4.40;;
4051;SDS011;2040;50.924;11.604;2023-05-14T08:05:38;4.70;;;3.63;;
4051;SDS011;2040;50.924;11.604;2023-05-14T08:08:04;3.27;;;2.60;;
4051;SDS011;2040;50.924;11.604;2023-05-14T08:10:29;5.00;;;2.80;;
4051;SDS011;2040;50.924;11.604;2023-05-14T08:12:55;4.43;;;3.00;;
4051;SDS011;2040;50.924;11.604;2023-05-14T08:15:21;6.70;;;3.57;;
4051;SDS011;2040;50.924;11.604;2023-05-14T08:17:47;3.83;;;3.20;;
4051;SDS011;2040;50.924;11.604;2023-05-14T08:20:12;5.73;;;3.03;;
4051;SDS011;2040;50.924;11.604;2023-05-14T08:22:38;6.00;;;3.40;;
4051;SDS011;2040;50.924;11.604;2023-05-14T08:25:04;6.40;;;3.10;;
4051;SDS011;2040;50.924;11.604;2023-05-14T08:27:30;3.63;;;3.20;;
4051;SDS011;2040;50.924;11.604;2023-05-14T08:29:56;4.10;;;3.40;;
4051;SDS011;2040;50.924;11.604;2023-05-14T08:32:21;4.20;;;3.57;;
4051;SDS011;2040;50.924;11.604;2023-05-14T08:34:47;9.83;;;3.60;;
4051;SDS011;2040;50.924;11.604;2023-05-14T08:37:12;4.67;;;3.90;;
4051;SDS011;2040;50.924;11.604;2023-05-14T08:39:38;3.80;;;3.10;;
4051;SDS011;2040;50.924;11.604;2023-05-14T08:42:05;4.87;;;3.40;;
4051;SDS011;2040;50.924;11.604;2023-05-14T08:45:04;8.80;;;4.43;;
4051;SDS011;2040;50.924;11.604;2023-05-14T08:47:26;3.80;;;3.40;;
4051;SDS011;2040;50.924;11.604;2023-05-14T08:50:00;5.07;;;3.93;;
4051;SDS011;2040;50.924;11.604;2023-05-14T08:52:30;4.97;;;3.93;;
4051;SDS011;2040;50.924;11.604;2023-05-14T08:55:02;5.67;;;3.70;;
4051;SDS011;2040;50.924;11.604;2023-05-14T08:57:29;6.17;;;3.70;;
4051;SDS011;2040;50.924;11.604;2023-05-14T08:59:57;5.73;;;4.13;;
4051;SDS011;2040;50.924;11.604;2023-05-14T09:02:26;4.30;;;3.40;;
4051;SDS011;2040;50.924;11.604;2023-05-14T09:04:54;5.23;;;3.50;;
4051;SDS011;2040;50.924;11.604;2023-05-14T09:07:24;13.10;;;3.87;;
4051;SDS011;2040;50.924;11.604;2023-05-14T09:09:53;4.10;;;3.30;;
4051;SDS011;2040;50.924;11.604;2023-05-14T09:12:19;5.80;;;3.87;;
4051;SDS011;2040;50.924;11.604;2023-05-14T09:14:46;6.20;;;4.07;;
4051;SDS011;2040;50.924;11.604;2023-05-14T09:17:12;4.73;;;3.50;;
4051;SDS011;2040;50.924;11.604;2023-05-14T09:19:38;4.43;;;3.70;;
4051;SDS011;2040;50.924;11.604;2023-05-14T09:22:07;4.20;;;3.20;;
4051;SDS011;2040;50.924;11.604;2023-05-14T09:24:34;5.40;;;3.37;;
4051;SDS011;2040;50.924;11.604;2023-05-14T09:27:00;4.30;;;3.20;;
4051;SDS011;2040;50.924;11.604;2023-05-14T09:29:27;5.40;;;3.00;;
4051;SDS011;2040;50.924;11.604;2023-05-14T09:31:53;5.40;;;3.40;;
4051;SDS011;2040;50.924;11.604;2023-05-14T09:34:23;7.67;;;3.67;;
4051;SDS011;2040;50.924;11.604;2023-05-14T09:36:56;4.67;;;3.40;;
4051;SDS011;2040;50.924;11.604;2023-05-14T09:39:23;4.33;;;3.90;;
4051;SDS011;2040;50.924;11.604;2023-05-14T09:41:50;4.50;;;3.40;;
4051;SDS011;2040;50.924;11.604;2023-05-14T09:44:16;6.40;;;3.63;;
4051;SDS011;2040;50.924;11.604;2023-05-14T09:46:42;4.50;;;3.63;;
4051;SDS011;2040;50.924;11.604;2023-05-14T09:49:09;4.10;;;3.40;;
4051;SDS011;2040;50.924;11.604;2023-05-14T09:51:34;4.50;;;3.30;;
4051;SDS011;2040;50.924;11.604;2023-05-14T09:54:01;6.13;;;4.00;;
4051;SDS011;2040;50.924;11.604;2023-05-14T09:56:29;4.50;;;3.80;;
4051;SDS011;2040;50.924;11.604;2023-05-14T09:58:54;3.33;;;2.83;;
4051;SDS011;2040;50.924;11.604;2023-05-14T10:01:20;5.47;;;3.17;;
4051;SDS011;2040;50.924;11.604;2023-05-14T10:03:47;4.50;;;3.13;;
4051;SDS011;2040;50.924;11.604;2023-05-14T10:06:13;4.70;;;3.57;;
4051;SDS011;2040;50.924;11.604;2023-05-14T10:08:42;4.07;;;3.63;;
4051;SDS011;2040;50.924;11.604;2023-05-14T10:11:12;5.60;;;3.73;;
4051;SDS011;2040;50.924;11.604;2023-05-14T10:13:51;3.50;;;2.63;;
4051;SDS011;2040;50.924;11.604;2023-05-14T10:16:28;4.17;;;3.00;;
4051;SDS011;2040;50.924;11.604;2023-05-14T10:18:59;4.07;;;3.33;;
4051;SDS011;2040;50.924;11.604;2023-05-14T10:21:29;3.87;;;2.73;;
4051;SDS011;2040;50.924;11.604;2023-05-14T10:23:58;3.83;;;3.10;;
4051;SDS011;2040;50.924;11.604;2023-05-14T10:26:24;4.37;;;3.60;;
4051;SDS011;2040;50.924;11.604;2023-05-14T10:28:52;4.20;;;2.90;;
4051;SDS011;2040;50.924;11.604;2023-05-14T10:31:20;5.67;;;3.47;;
4051;SDS011;2040;50.924;11.604;2023-05-14T10:33:48;5.60;;;3.23;;
4051;SDS011;2040;50.924;11.604;2023-05-14T10:36:15;3.90;;;3.47;;
4051;SDS011;2040;50.924;11.604;2023-05-14T10:38:41;4.60;;;3.43;;
4051;SDS011;2040;50.924;11.604;2023-05-14T10:41:13;4.50;;;2.80;;
4051;SDS011;2040;50.924;11.604;2023-05-14T10:43:42;5.10;;;3.60;;
4051;SDS011;2040;50.924;11.604;2023-05-14T10:46:08;4.00;;;3.20;;
4051;SDS011;2040;50.924;11.604;2023-05-14T10:48:35;7.13;;;3.97;;
4051;SDS011;2040;50.924;11.604;2023-05-14T10:51:02;5.40;;;3.63;;
4051;SDS011;2040;50.924;11.604;2023-05-14T10:53:34;4.63;;;3.40;;
4051;SDS011;2040;50.924;11.604;2023-05-14T10:56:02;5.43;;;3.43;;
4051;SDS011;2040;50.924;11.604;2023-05-14T10:58:30;4.83;;;3.33;;
4051;SDS011;2040;50.924;11.604;2023-05-14T11:00:58;4.77;;;3.23;;
4051;SDS011;2040;50.924;11.604;2023-05-14T11:03:27;4.00;;;3.10;;
4051;SDS011;2040;50.924;11.604;2023-05-14T11:06:02;4.77;;;3.70;;
4051;SDS011;2040;50.924;11.604;2023-05-14T11:08:28;3.47;;;2.93;;
4051;SDS011;2040;50.924;11.604;2023-05-14T11:10:56;3.83;;;2.90;;
4051;SDS011;2040;50.924;11.604;2023-05-14T11:13:22;5.60;;;3.57;;
4051;SDS011;2040;50.924;11.604;2023-05-14T11:15:50;8.83;;;3.20;;
4051;SDS011;2040;50.924;11.604;2023-05-14T11:18:28;4.73;;;3.53;;
4051;SDS011;2040;50.924;11.604;2023-05-14T11:20:58;3.30;;;2.73;;
4051;SDS011;2040;50.924;11.604;2023-05-14T11:23:25;3.80;;;3.27;;
4051;SDS011;2040;50.924;11.604;2023-05-14T11:25:51;4.50;;;3.17;;
4051;SDS011;2040;50.924;11.604;2023-05-14T11:28:20;4.30;;;2.93;;
4051;SDS011;2040;50.924;11.604;2023-05-14T11:30:47;5.20;;;3.53;;
4051;SDS011;2040;50.924;11.604;2023-05-14T11:33:14;3.37;;;2.90;;
4051;SDS011;2040;50.924;11.604;2023-05-14T11:35:40;4.60;;;2.83;;
4051;SDS011;2040;50.924;11.604;2023-05-14T11:38:12;4.23;;;3.20;;
4051;SDS011;2040;50.924;11.604;2023-05-14T11:40:39;4.77;;;3.03;;
4051;SDS011;2040;50.924;11.604;2023-05-14T11:43:05;6.90;;;3.07;;
4051;SDS011;2040;50.924;11.604;2023-05-14T11:45:30;5.73;;;3.60;;
4051;SDS011;2040;50.924;11.604;2023-05-14T11:47:57;4.20;;;3.20;;
4051;SDS011;2040;50.924;11.604;2023-05-14T11:50:22;6.23;;;3.70;;
4051;SDS011;2040;50.924;11.604;2023-05-14T11:52:48;3.83;;;3.30;;
4051;SDS011;2040;50.924;11.604;2023-05-14T11:55:15;7.03;;;3.90;;
4051;SDS011;2040;50.924;11.604;2023-05-14T11:57:41;3.33;;;3.03;;
4051;SDS011;2040;50.924;11.604;2023-05-14T12:00:08;4.00;;;3.10;;
4051;SDS011;2040;50.924;11.604;2023-05-14T12:02:37;3.87;;;3.33;;
4051;SDS011;2040;50.924;11.604;2023-05-14T12:05:03;5.33;;;3.60;;
4051;SDS011;2040;50.924;11.604;2023-05-14T12:07:31;5.10;;;3.20;;
4051;SDS011;2040;50.924;11.604;2023-05-14T12:09:59;5.33;;;3.30;;
4051;SDS011;2040;50.924;11.604;2023-05-14T12:12:25;4.53;;;3.57;;
4051;SDS011;2040;50.924;11.604;2023-05-14T12:14:51;3.87;;;3.47;;
4051;SDS011;2040;50.924;11.604;2023-05-14T12:17:17;6.80;;;3.47;;
4051;SDS011;2040;50.924;11.604;2023-05-14T12:19:45;5.23;;;3.03;;
4051;SDS011;2040;50.924;11.604;2023-05-14T12:22:15;4.37;;;3.63;;
4051;SDS011;2040;50.924;11.604;2023-05-14T12:24:52;6.17;;;3.97;;
4051;SDS011;2040;50.924;11.604;2023-05-14T12:27:20;6.00;;;4.37;;
4051;SDS011;2040;50.924;11.604;2023-05-14T12:29:48;3.53;;;3.10;;
4051;SDS011;2040;50.924;11.604;2023-05-14T12:32:13;4.00;;;3.50;;
4051;SDS011;2040;50.924;11.604;2023-05-14T12:34:39;7.77;;;4.37;;
4051;SDS011;2040;50.924;11.604;2023-05-14T12:37:05;4.67;;;3.63;;
4051;SDS011;2040;50.924;11.604;2023-05-14T12:39:33;7.80;;;3.80;;
4051;SDS011;2040;50.924;11.604;2023-05-14T12:41:59;3.73;;;3.43;;
4051;SDS011;2040;50.924;11.604;2023-05-14T12:44:25;4.23;;;3.60;;
4051;SDS011;2040;50.924;11.604;2023-05-14T12:46:51;6.60;;;3.40;;
4051;SDS011;2040;50.924;11.604;2023-05-14T12:49:16;3.80;;;3.40;;
4051;SDS011;2040;50.924;11.604;2023-05-14T12:51:42;3.77;;;3.10;;
4051;SDS011;2040;50.924;11.604;2023-05-14T12:54:08;8.23;;;3.10;;
4051;SDS011;2040;50.924;11.604;2023-05-14T12:56:35;5.47;;;3.30;;
4051;SDS011;2040;50.924;11.604;2023-05-14T12:59:02;3.47;;;3.17;;
4051;SDS011;2040;50.924;11.604;2023-05-14T13:01:28;3.10;;;2.80;;
4051;SDS011;2040;50.924;11.604;2023-05-14T13:03:53;3.93;;;2.80;;
4051;SDS011;2040;50.924;11.604;2023-05-14T13:06:19;3.93;;;3.00;;
4051;SDS011;2040;50.924;11.604;2023-05-14T13:08:45;7.40;;;3.77;;
4051;SDS011;2040;50.924;11.604;2023-05-14T13:11:10;6.67;;;3.27;;
4051;SDS011;2040;50.924;11.604;2023-05-14T13:13:36;5.10;;;4.10;;
4051;SDS011;2040;50.924;11.604;2023-05-14T13:16:01;6.70;;;3.73;;
4051;SDS011;2040;50.924;11.604;2023-05-14T13:18:27;4.13;;;3.40;;
4051;SDS011;2040;50.924;11.604;2023-05-14T13:20:53;9.93;;;3.33;;
4051;SDS011;2040;50.924;11.604;2023-05-14T13:23:18;9.30;;;3.07;;
4051;SDS011;2040;50.924;11.604;2023-05-14T13:25:44;3.60;;;3.10;;
4051;SDS011;2040;50.924;11.604;2023-05-14T13:28:09;3.80;;;3.10;;
4051;SDS011;2040;50.924;11.604;2023-05-14T13:30:35;3.73;;;3.33;;
4051;SDS011;2040;50.924;11.604;2023-05-14T13:33:01;10.27;;;6.13;;
4051;SDS011;2040;50.924;11.604;2023-05-14T13:35:26;9.60;;;5.00;;
4051;SDS011;2040;50.924;11.604;2023-05-14T13:37:52;6.30;;;3.80;;
4051;SDS011;2040;50.924;11.604;2023-05-14T13:40:17;2.90;;;2.43;;
4051;SDS011;2040;50.924;11.604;2023-05-14T13:42:44;3.57;;;2.67;;
4051;SDS011;2040;50.924;11.604;2023-05-14T13:45:09;5.43;;;3.60;;
4051;SDS011;2040;50.924;11.604;2023-05-14T13:47:37;4.70;;;3.60;;
4051;SDS011;2040;50.924;11.604;2023-05-14T13:50:02;4.60;;;3.40;;
4051;SDS011;2040;50.924;11.604;2023-05-14T13:52:28;5.37;;;3.50;;
4051;SDS011;2040;50.924;11.604;2023-05-14T13:54:53;4.57;;;3.30;;
4051;SDS011;2040;50.924;11.604;2023-05-14T13:57:20;3.60;;;3.20;;
4051;SDS011;2040;50.924;11.604;2023-05-14T13:59:46;3.70;;;3.40;;
4051;SDS011;2040;50.924;11.604;2023-05-14T14:02:13;8.30;;;3.50;;
4051;SDS011;2040;50.924;11.604;2023-05-14T14:04:39;3.47;;;2.67;;
4051;SDS011;2040;50.924;11.604;2023-05-14T14:07:04;3.10;;;2.63;;
4051;SDS011;2040;50.924;11.604;2023-05-14T14:09:30;3.70;;;2.97;;
4051;SDS011;2040;50.924;11.604;2023-05-14T14:12:01;11.67;;;3.80;;
4051;SDS011;2040;50.924;11.604;2023-05-14T14:14:27;5.33;;;3.20;;
4051;SDS011;2040;50.924;11.604;2023-05-14T14:16:53;5.17;;;3.17;;
4051;SDS011;2040;50.924;11.604;2023-05-14T14:19:18;5.60;;;4.30;;
4051;SDS011;2040;50.924;11.604;2023-05-14T14:21:44;7.90;;;4.00;;
4051;SDS011;2040;50.924;11.604;2023-05-14T14:24:10;11.10;;;4.87;;
4051;SDS011;2040;50.924;11.604;2023-05-14T14:26:35;7.40;;;4.50;;
4051;SDS011;2040;50.924;11.604;2023-05-14T14:29:01;5.47;;;4.20;;
4051;SDS011;2040;50.924;11.604;2023-05-14T14:31:27;7.07;;;3.90;;
4051;SDS011;2040;50.924;11.604;2023-05-14T14:33:53;5.33;;;3.23;;
4051;SDS011;2040;50.924;11.604;2023-05-14T14:36:18;9.83;;;4.10;;
4051;SDS011;2040;50.924;11.604;2023-05-14T14:38:44;4.50;;;3.60;;
4051;SDS011;2040;50.924;11.604;2023-05-14T14:41:09;6.93;;;4.00;;
4051;SDS011;2040;50.924;11.604;2023-05-14T14:43:38;4.60;;;3.40;;
4051;SDS011;2040;50.924;11.604;2023-05-14T14:46:05;4.93;;;3.77;;
4051;SDS011;2040;50.924;11.604;2023-05-14T14:48:33;5.00;;;3.73;;
4051;SDS011;2040;50.924;11.604;2023-05-14T14:51:03;4.63;;;3.60;;
4051;SDS011;2040;50.924;11.604;2023-05-14T14:53:29;7.50;;;4.23;;
4051;SDS011;2040;50.924;11.604;2023-05-14T14:55:55;7.27;;;3.90;;
4051;SDS011;2040;50.924;11.604;2023-05-14T14:58:22;9.03;;;4.23;;
4051;SDS011;2040;50.924;11.604;2023-05-14T15:00:55;5.10;;;3.37;;